sensor_id;sensor_type;location;lat;lon;timestamp;P1;durP1;ratioP1;P2;durP2;ratioP2
70228;SDS011;57617;51.988;5.854;2022-10-20T00:00:22;10.07;;;5.70;;
70228;SDS011;57617;51.988;5.854;2022-10-20T00:02:47;13.13;;;5.55;;
70228;SDS011;57617;51.988;5.854;2022-10-20T00:05:13;12.23;;;5.60;;
70228;SDS011;57617;51.988;5.854;2022-10-20T00:07:38;9.55;;;5.63;;
70228;SDS011;57617;51.988;5.854;2022-10-20T00:10:04;10.40;;;5.60;;
70228;SDS011;57617;51.988;5.854;2022-10-20T00:12:29;10.05;;;5.75;;
70228;SDS011;57617;51.988;5.854;2022-10-20T00:14:55;10.95;;;5.55;;
70228;SDS011;57617;51.988;5.854;2022-10-20T00:17:20;11.95;;;6.18;;
70228;SDS011;57617;51.988;5.854;2022-10-20T00:19:48;11.75;;;6.03;;
70228;SDS011;57617;51.988;5.854;2022-10-20T00:22:14;14.48;;;5.80;;
70228;SDS011;57617;51.988;5.854;2022-10-20T00:24:39;14.23;;;5.78;;
70228;SDS011;57617;51.988;5.854;2022-10-20T00:27:04;10.35;;;5.90;;
70228;SDS011;57617;51.988;5.854;2022-10-20T00:29:30;14.30;;;6.30;;
70228;SDS011;57617;51.988;5.854;2022-10-20T00:31:55;14.00;;;6.03;;
70228;SDS011;57617;51.988;5.854;2022-10-20T00:34:20;12.18;;;5.78;;
70228;SDS011;57617;51.988;5.854;2022-10-20T00:36:46;10.20;;;5.70;;
70228;SDS011;57617;51.988;5.854;2022-10-20T00:39:11;13.75;;;6.15;;
70228;SDS011;57617;51.988;5.854;2022-10-20T00:41:36;12.90;;;6.22;;
70228;SDS011;57617;51.988;5.854;2022-10-20T00:44:49;11.45;;;6.03;;
70228;SDS011;57617;51.988;5.854;2022-10-20T00:47:08;14.43;;;6.05;;
70228;SDS011;57617;51.988;5.854;2022-10-20T00:49:37;9.90;;;6.15;;
70228;SDS011;57617;51.988;5.854;2022-10-20T00:52:03;15.75;;;6.45;;
70228;SDS011;57617;51.988;5.854;2022-10-20T00:54:28;13.07;;;5.90;;
70228;SDS011;57617;51.988;5.854;2022-10-20T00:56:54;14.13;;;6.38;;
70228;SDS011;57617;51.988;5.854;2022-10-20T00:59:27;12.25;;;6.22;;
70228;SDS011;57617;51.988;5.854;2022-10-20T01:01:55;14.32;;;6.40;;
70228;SDS011;57617;51.988;5.854;2022-10-20T01:04:23;14.02;;;6.68;;
70228;SDS011;57617;51.988;5.854;2022-10-20T01:06:51;14.30;;;6.45;;
70228;SDS011;57617;51.988;5.854;2022-10-20T01:09:16;12.35;;;6.35;;
70228;SDS011;57617;51.988;5.854;2022-10-20T01:11:48;13.93;;;6.28;;
70228;SDS011;57617;51.988;5.854;2022-10-20T01:17:16;11.85;;;6.72;;
70228;SDS011;57617;51.988;5.854;2022-10-20T01:27:42;14.40;;;6.80;;
70228;SDS011;57617;51.988;5.854;2022-10-20T01:35:48;14.52;;;6.68;;
70228;SDS011;57617;51.988;5.854;2022-10-20T01:38:41;15.00;;;6.88;;
70228;SDS011;57617;51.988;5.854;2022-10-20T01:41:24;16.15;;;6.68;;
70228;SDS011;57617;51.988;5.854;2022-10-20T01:43:58;13.65;;;6.85;;
70228;SDS011;57617;51.988;5.854;2022-10-20T01:46:26;12.60;;;6.72;;
70228;SDS011;57617;51.988;5.854;2022-10-20T01:48:52;11.27;;;6.50;;
70228;SDS011;57617;51.988;5.854;2022-10-20T01:51:18;13.02;;;6.93;;
70228;SDS011;57617;51.988;5.854;2022-10-20T01:53:43;13.90;;;6.78;;
70228;SDS011;57617;51.988;5.854;2022-10-20T01:56:12;16.95;;;6.50;;
70228;SDS011;57617;51.988;5.854;2022-10-20T02:01:38;14.15;;;6.85;;
70228;SDS011;57617;51.988;5.854;2022-10-20T02:04:14;16.98;;;7.65;;
70228;SDS011;57617;51.988;5.854;2022-10-20T02:06:50;14.80;;;7.18;;
70228;SDS011;57617;51.988;5.854;2022-10-20T02:09:28;14.02;;;6.72;;
70228;SDS011;57617;51.988;5.854;2022-10-20T02:12:04;16.67;;;6.78;;
70228;SDS011;57617;51.988;5.854;2022-10-20T02:14:34;13.93;;;7.22;;
70228;SDS011;57617;51.988;5.854;2022-10-20T02:17:04;13.40;;;7.03;;
70228;SDS011;57617;51.988;5.854;2022-10-20T02:19:34;11.48;;;7.00;;
70228;SDS011;57617;51.988;5.854;2022-10-20T02:22:04;12.55;;;7.15;;
70228;SDS011;57617;51.988;5.854;2022-10-20T02:24:33;15.32;;;6.82;;
70228;SDS011;57617;51.988;5.854;2022-10-20T02:27:03;15.82;;;7.03;;
70228;SDS011;57617;51.988;5.854;2022-10-20T02:29:45;13.13;;;6.85;;
70228;SDS011;57617;51.988;5.854;2022-10-20T02:32:14;12.65;;;7.30;;
70228;SDS011;57617;51.988;5.854;2022-10-20T02:34:41;10.45;;;6.47;;
70228;SDS011;57617;51.988;5.854;2022-10-20T02:37:07;13.32;;;7.18;;
70228;SDS011;57617;51.988;5.854;2022-10-20T02:39:32;15.98;;;7.10;;
70228;SDS011;57617;51.988;5.854;2022-10-20T02:41:58;12.77;;;6.93;;
70228;SDS011;57617;51.988;5.854;2022-10-20T02:44:23;13.40;;;6.75;;
70228;SDS011;57617;51.988;5.854;2022-10-20T02:46:48;12.13;;;6.90;;
70228;SDS011;57617;51.988;5.854;2022-10-20T02:49:14;13.30;;;7.03;;
70228;SDS011;57617;51.988;5.854;2022-10-20T02:51:39;12.05;;;6.88;;
70228;SDS011;57617;51.988;5.854;2022-10-20T02:54:04;16.10;;;6.78;;
70228;SDS011;57617;51.988;5.854;2022-10-20T02:56:29;14.02;;;7.07;;
70228;SDS011;57617;51.988;5.854;2022-10-20T02:58:56;11.18;;;6.90;;
70228;SDS011;57617;51.988;5.854;2022-10-20T03:01:21;11.63;;;6.95;;
70228;SDS011;57617;51.988;5.854;2022-10-20T03:03:48;14.07;;;6.90;;
70228;SDS011;57617;51.988;5.854;2022-10-20T03:06:15;11.93;;;6.82;;
70228;SDS011;57617;51.988;5.854;2022-10-20T03:08:41;17.77;;;7.40;;
70228;SDS011;57617;51.988;5.854;2022-10-20T03:11:07;13.80;;;6.70;;
70228;SDS011;57617;51.988;5.854;2022-10-20T03:13:33;15.20;;;7.45;;
70228;SDS011;57617;51.988;5.854;2022-10-20T03:15:58;14.52;;;7.10;;
70228;SDS011;57617;51.988;5.854;2022-10-20T03:18:24;13.52;;;6.88;;
70228;SDS011;57617;51.988;5.854;2022-10-20T03:20:53;12.52;;;7.05;;
70228;SDS011;57617;51.988;5.854;2022-10-20T03:23:19;14.48;;;6.57;;
70228;SDS011;57617;51.988;5.854;2022-10-20T03:25:44;16.27;;;7.30;;
70228;SDS011;57617;51.988;5.854;2022-10-20T03:28:10;14.27;;;6.97;;
70228;SDS011;57617;51.988;5.854;2022-10-20T03:30:35;11.00;;;6.85;;
70228;SDS011;57617;51.988;5.854;2022-10-20T03:33:00;15.73;;;7.25;;
70228;SDS011;57617;51.988;5.854;2022-10-20T03:35:26;13.70;;;7.05;;
70228;SDS011;57617;51.988;5.854;2022-10-20T03:37:51;13.90;;;7.20;;
70228;SDS011;57617;51.988;5.854;2022-10-20T03:40:16;14.27;;;7.25;;
70228;SDS011;57617;51.988;5.854;2022-10-20T03:42:42;14.50;;;7.18;;
70228;SDS011;57617;51.988;5.854;2022-10-20T03:45:07;15.40;;;6.93;;
70228;SDS011;57617;51.988;5.854;2022-10-20T03:47:33;16.25;;;7.30;;
70228;SDS011;57617;51.988;5.854;2022-10-20T03:49:58;14.55;;;7.35;;
70228;SDS011;57617;51.988;5.854;2022-10-20T03:52:23;13.63;;;7.28;;
70228;SDS011;57617;51.988;5.854;2022-10-20T03:54:49;16.88;;;7.50;;
70228;SDS011;57617;51.988;5.854;2022-10-20T03:57:14;16.40;;;7.10;;
70228;SDS011;57617;51.988;5.854;2022-10-20T03:59:39;13.73;;;7.28;;
70228;SDS011;57617;51.988;5.854;2022-10-20T04:02:05;14.80;;;7.20;;
70228;SDS011;57617;51.988;5.854;2022-10-20T04:04:30;10.88;;;6.63;;
70228;SDS011;57617;51.988;5.854;2022-10-20T04:06:55;19.83;;;6.95;;
70228;SDS011;57617;51.988;5.854;2022-10-20T04:09:21;14.75;;;7.43;;
70228;SDS011;57617;51.988;5.854;2022-10-20T04:11:46;16.08;;;7.63;;
70228;SDS011;57617;51.988;5.854;2022-10-20T04:14:11;14.43;;;7.10;;
70228;SDS011;57617;51.988;5.854;2022-10-20T04:16:37;16.17;;;7.35;;
70228;SDS011;57617;51.988;5.854;2022-10-20T04:19:02;18.38;;;7.45;;
70228;SDS011;57617;51.988;5.854;2022-10-20T04:21:27;16.52;;;7.80;;
70228;SDS011;57617;51.988;5.854;2022-10-20T04:23:52;19.55;;;7.70;;
70228;SDS011;57617;51.988;5.854;2022-10-20T04:26:18;13.48;;;7.28;;
70228;SDS011;57617;51.988;5.854;2022-10-20T04:28:43;16.13;;;7.75;;
70228;SDS011;57617;51.988;5.854;2022-10-20T04:31:08;14.82;;;7.15;;
70228;SDS011;57617;51.988;5.854;2022-10-20T04:33:34;14.57;;;7.38;;
70228;SDS011;57617;51.988;5.854;2022-10-20T04:36:00;17.45;;;8.80;;
70228;SDS011;57617;51.988;5.854;2022-10-20T04:38:31;16.42;;;8.18;;
70228;SDS011;57617;51.988;5.854;2022-10-20T04:40:58;17.15;;;7.25;;
70228;SDS011;57617;51.988;5.854;2022-10-20T04:43:25;17.13;;;7.85;;
70228;SDS011;57617;51.988;5.854;2022-10-20T04:45:51;14.52;;;7.43;;
70228;SDS011;57617;51.988;5.854;2022-10-20T04:48:18;15.10;;;7.97;;
70228;SDS011;57617;51.988;5.854;2022-10-20T04:50:44;14.68;;;7.65;;
70228;SDS011;57617;51.988;5.854;2022-10-20T04:53:09;15.93;;;7.85;;
70228;SDS011;57617;51.988;5.854;2022-10-20T04:55:35;16.83;;;8.10;;
70228;SDS011;57617;51.988;5.854;2022-10-20T04:58:00;19.60;;;7.78;;
70228;SDS011;57617;51.988;5.854;2022-10-20T05:00:25;17.33;;;7.88;;
70228;SDS011;57617;51.988;5.854;2022-10-20T05:02:51;16.73;;;7.75;;
70228;SDS011;57617;51.988;5.854;2022-10-20T05:05:16;14.75;;;8.02;;
70228;SDS011;57617;51.988;5.854;2022-10-20T05:07:41;17.92;;;8.32;;
70228;SDS011;57617;51.988;5.854;2022-10-20T05:10:07;16.23;;;7.60;;
70228;SDS011;57617;51.988;5.854;2022-10-20T05:12:33;13.57;;;8.13;;
70228;SDS011;57617;51.988;5.854;2022-10-20T05:14:58;18.33;;;7.97;;
70228;SDS011;57617;51.988;5.854;2022-10-20T05:17:23;14.27;;;7.97;;
70228;SDS011;57617;51.988;5.854;2022-10-20T05:19:48;16.75;;;8.38;;
70228;SDS011;57617;51.988;5.854;2022-10-20T05:22:14;13.35;;;8.10;;
70228;SDS011;57617;51.988;5.854;2022-10-20T05:24:39;17.10;;;8.15;;
70228;SDS011;57617;51.988;5.854;2022-10-20T05:27:04;18.17;;;8.73;;
70228;SDS011;57617;51.988;5.854;2022-10-20T05:29:30;18.13;;;9.40;;
70228;SDS011;57617;51.988;5.854;2022-10-20T05:31:55;16.90;;;8.52;;
70228;SDS011;57617;51.988;5.854;2022-10-20T05:34:20;19.25;;;8.55;;
70228;SDS011;57617;51.988;5.854;2022-10-20T05:36:45;16.88;;;8.50;;
70228;SDS011;57617;51.988;5.854;2022-10-20T05:39:11;17.42;;;8.57;;
70228;SDS011;57617;51.988;5.854;2022-10-20T05:41:36;19.53;;;10.87;;
70228;SDS011;57617;51.988;5.854;2022-10-20T05:44:02;17.35;;;9.57;;
70228;SDS011;57617;51.988;5.854;2022-10-20T05:46:31;18.65;;;8.68;;
70228;SDS011;57617;51.988;5.854;2022-10-20T05:48:59;16.00;;;8.57;;
70228;SDS011;57617;51.988;5.854;2022-10-20T05:51:27;19.55;;;9.00;;
70228;SDS011;57617;51.988;5.854;2022-10-20T05:53:55;20.52;;;9.10;;
70228;SDS011;57617;51.988;5.854;2022-10-20T05:56:21;18.65;;;9.40;;
70228;SDS011;57617;51.988;5.854;2022-10-20T05:58:47;18.05;;;9.15;;
70228;SDS011;57617;51.988;5.854;2022-10-20T06:01:15;16.20;;;8.93;;
70228;SDS011;57617;51.988;5.854;2022-10-20T06:03:48;21.67;;;9.38;;
70228;SDS011;57617;51.988;5.854;2022-10-20T06:06:13;17.02;;;9.10;;
70228;SDS011;57617;51.988;5.854;2022-10-20T06:08:39;16.25;;;9.35;;
70228;SDS011;57617;51.988;5.854;2022-10-20T06:11:05;17.40;;;9.40;;
70228;SDS011;57617;51.988;5.854;2022-10-20T06:13:32;18.08;;;9.05;;
70228;SDS011;57617;51.988;5.854;2022-10-20T06:16:02;19.90;;;9.60;;
70228;SDS011;57617;51.988;5.854;2022-10-20T06:18:35;19.85;;;9.23;;
70228;SDS011;57617;51.988;5.854;2022-10-20T06:21:04;18.42;;;9.30;;
70228;SDS011;57617;51.988;5.854;2022-10-20T06:23:31;20.88;;;9.57;;
70228;SDS011;57617;51.988;5.854;2022-10-20T06:26:06;16.95;;;9.65;;
70228;SDS011;57617;51.988;5.854;2022-10-20T06:28:34;22.23;;;9.98;;
70228;SDS011;57617;51.988;5.854;2022-10-20T06:31:17;19.58;;;9.50;;
70228;SDS011;57617;51.988;5.854;2022-10-20T06:33:45;18.75;;;10.48;;
70228;SDS011;57617;51.988;5.854;2022-10-20T06:36:11;19.52;;;9.50;;
70228;SDS011;57617;51.988;5.854;2022-10-20T06:38:36;24.50;;;10.57;;
70228;SDS011;57617;51.988;5.854;2022-10-20T06:41:10;19.20;;;10.07;;
70228;SDS011;57617;51.988;5.854;2022-10-20T06:43:36;21.10;;;9.63;;
70228;SDS011;57617;51.988;5.854;2022-10-20T06:46:04;19.90;;;9.98;;
70228;SDS011;57617;51.988;5.854;2022-10-20T06:48:32;19.33;;;9.90;;
70228;SDS011;57617;51.988;5.854;2022-10-20T06:50:59;19.40;;;9.65;;
70228;SDS011;57617;51.988;5.854;2022-10-20T06:53:27;20.65;;;9.55;;
70228;SDS011;57617;51.988;5.854;2022-10-20T06:56:00;16.92;;;9.75;;
70228;SDS011;57617;51.988;5.854;2022-10-20T06:58:31;21.00;;;9.68;;
70228;SDS011;57617;51.988;5.854;2022-10-20T07:03:22;19.33;;;10.02;;
70228;SDS011;57617;51.988;5.854;2022-10-20T07:05:47;20.15;;;9.85;;
70228;SDS011;57617;51.988;5.854;2022-10-20T07:08:13;19.70;;;9.60;;
70228;SDS011;57617;51.988;5.854;2022-10-20T07:10:38;22.17;;;10.65;;
70228;SDS011;57617;51.988;5.854;2022-10-20T07:13:03;18.58;;;10.23;;
70228;SDS011;57617;51.988;5.854;2022-10-20T07:15:29;18.80;;;10.00;;
70228;SDS011;57617;51.988;5.854;2022-10-20T07:17:54;18.05;;;9.30;;
70228;SDS011;57617;51.988;5.854;2022-10-20T07:20:19;21.80;;;10.20;;
70228;SDS011;57617;51.988;5.854;2022-10-20T07:22:44;18.63;;;10.25;;
70228;SDS011;57617;51.988;5.854;2022-10-20T07:25:10;21.73;;;10.63;;
70228;SDS011;57617;51.988;5.854;2022-10-20T07:27:35;20.60;;;10.35;;
70228;SDS011;57617;51.988;5.854;2022-10-20T07:30:00;21.58;;;10.48;;
70228;SDS011;57617;51.988;5.854;2022-10-20T07:32:25;18.27;;;9.82;;
70228;SDS011;57617;51.988;5.854;2022-10-20T07:34:51;16.90;;;9.50;;
70228;SDS011;57617;51.988;5.854;2022-10-20T07:37:17;19.90;;;10.27;;
70228;SDS011;57617;51.988;5.854;2022-10-20T07:39:43;21.08;;;10.32;;
70228;SDS011;57617;51.988;5.854;2022-10-20T07:42:08;24.67;;;10.13;;
70228;SDS011;57617;51.988;5.854;2022-10-20T07:44:33;18.35;;;10.10;;
70228;SDS011;57617;51.988;5.854;2022-10-20T07:46:59;21.20;;;9.95;;
70228;SDS011;57617;51.988;5.854;2022-10-20T07:49:24;21.40;;;10.32;;
70228;SDS011;57617;51.988;5.854;2022-10-20T07:51:49;19.90;;;10.32;;
70228;SDS011;57617;51.988;5.854;2022-10-20T07:54:14;20.70;;;10.05;;
70228;SDS011;57617;51.988;5.854;2022-10-20T07:56:40;20.05;;;10.82;;
70228;SDS011;57617;51.988;5.854;2022-10-20T07:59:07;25.60;;;10.68;;
70228;SDS011;57617;51.988;5.854;2022-10-20T08:01:34;21.13;;;10.07;;
70228;SDS011;57617;51.988;5.854;2022-10-20T08:04:00;22.88;;;11.15;;
70228;SDS011;57617;51.988;5.854;2022-10-20T08:06:25;20.23;;;10.77;;
70228;SDS011;57617;51.988;5.854;2022-10-20T08:08:51;19.00;;;10.65;;
70228;SDS011;57617;51.988;5.854;2022-10-20T08:11:17;22.75;;;10.98;;
70228;SDS011;57617;51.988;5.854;2022-10-20T08:13:42;17.63;;;9.75;;
70228;SDS011;57617;51.988;5.854;2022-10-20T08:16:08;17.90;;;10.38;;
70228;SDS011;57617;51.988;5.854;2022-10-20T08:18:36;22.75;;;10.70;;
70228;SDS011;57617;51.988;5.854;2022-10-20T08:21:05;20.60;;;10.50;;
70228;SDS011;57617;51.988;5.854;2022-10-20T08:23:32;23.10;;;10.73;;
70228;SDS011;57617;51.988;5.854;2022-10-20T08:25:57;20.60;;;10.68;;
70228;SDS011;57617;51.988;5.854;2022-10-20T08:28:23;20.58;;;10.80;;
70228;SDS011;57617;51.988;5.854;2022-10-20T08:30:48;22.15;;;10.10;;
70228;SDS011;57617;51.988;5.854;2022-10-20T08:33:13;22.33;;;11.52;;
70228;SDS011;57617;51.988;5.854;2022-10-20T08:35:38;19.40;;;10.88;;
70228;SDS011;57617;51.988;5.854;2022-10-20T08:38:04;21.73;;;10.70;;
70228;SDS011;57617;51.988;5.854;2022-10-20T08:40:30;20.60;;;11.15;;
70228;SDS011;57617;51.988;5.854;2022-10-20T08:42:55;23.38;;;11.20;;
70228;SDS011;57617;51.988;5.854;2022-10-20T08:45:22;23.90;;;11.80;;
70228;SDS011;57617;51.988;5.854;2022-10-20T08:47:50;26.00;;;11.57;;
70228;SDS011;57617;51.988;5.854;2022-10-20T08:50:18;20.23;;;11.48;;
70228;SDS011;57617;51.988;5.854;2022-10-20T08:52:46;23.52;;;11.18;;
70228;SDS011;57617;51.988;5.854;2022-10-20T08:55:26;21.80;;;11.80;;
70228;SDS011;57617;51.988;5.854;2022-10-20T08:58:00;21.92;;;11.55;;
70228;SDS011;57617;51.988;5.854;2022-10-20T09:00:28;20.90;;;12.18;;
70228;SDS011;57617;51.988;5.854;2022-10-20T09:02:55;24.40;;;11.45;;
70228;SDS011;57617;51.988;5.854;2022-10-20T09:05:25;20.38;;;11.27;;
70228;SDS011;57617;51.988;5.854;2022-10-20T09:07:54;20.52;;;11.82;;
70228;SDS011;57617;51.988;5.854;2022-10-20T09:10:31;21.20;;;11.98;;
70228;SDS011;57617;51.988;5.854;2022-10-20T09:12:59;25.05;;;12.38;;
70228;SDS011;57617;51.988;5.854;2022-10-20T09:15:26;21.77;;;12.00;;
70228;SDS011;57617;51.988;5.854;2022-10-20T09:17:53;21.13;;;11.63;;
70228;SDS011;57617;51.988;5.854;2022-10-20T09:20:22;25.23;;;11.82;;
70228;SDS011;57617;51.988;5.854;2022-10-20T09:22:51;24.60;;;12.00;;
70228;SDS011;57617;51.988;5.854;2022-10-20T09:25:19;21.23;;;11.68;;
70228;SDS011;57617;51.988;5.854;2022-10-20T09:27:48;26.05;;;12.00;;
70228;SDS011;57617;51.988;5.854;2022-10-20T09:32:39;21.63;;;12.23;;
70228;SDS011;57617;51.988;5.854;2022-10-20T09:37:48;24.73;;;12.93;;
70228;SDS011;57617;51.988;5.854;2022-10-20T09:40:22;21.95;;;12.10;;
70228;SDS011;57617;51.988;5.854;2022-10-20T09:42:52;22.55;;;12.70;;
70228;SDS011;57617;51.988;5.854;2022-10-20T09:45:30;22.13;;;12.40;;
70228;SDS011;57617;51.988;5.854;2022-10-20T09:48:04;24.23;;;12.60;;
70228;SDS011;57617;51.988;5.854;2022-10-20T09:50:40;24.98;;;12.23;;
70228;SDS011;57617;51.988;5.854;2022-10-20T09:53:17;24.40;;;12.02;;
70228;SDS011;57617;51.988;5.854;2022-10-20T09:55:48;22.45;;;12.35;;
70228;SDS011;57617;51.988;5.854;2022-10-20T09:58:20;37.35;;;18.33;;
70228;SDS011;57617;51.988;5.854;2022-10-20T10:03:38;25.70;;;13.63;;
70228;SDS011;57617;51.988;5.854;2022-10-20T10:12:00;30.83;;;15.48;;
70228;SDS011;57617;51.988;5.854;2022-10-20T10:14:35;32.30;;;13.88;;
70228;SDS011;57617;51.988;5.854;2022-10-20T10:17:00;30.45;;;14.82;;
70228;SDS011;57617;51.988;5.854;2022-10-20T10:19:27;34.13;;;16.13;;
70228;SDS011;57617;51.988;5.854;2022-10-20T10:21:56;33.03;;;16.15;;
70228;SDS011;57617;51.988;5.854;2022-10-20T10:26:52;29.98;;;14.82;;
70228;SDS011;57617;51.988;5.854;2022-10-20T10:29:26;27.17;;;14.70;;
70228;SDS011;57617;51.988;5.854;2022-10-20T10:34:31;25.42;;;14.63;;
70228;SDS011;57617;51.988;5.854;2022-10-20T10:37:03;32.38;;;14.25;;
70228;SDS011;57617;51.988;5.854;2022-10-20T10:39:28;30.80;;;18.05;;
70228;SDS011;57617;51.988;5.854;2022-10-20T10:47:26;27.75;;;15.57;;
70228;SDS011;57617;51.988;5.854;2022-10-20T10:58:32;31.17;;;15.68;;
70228;SDS011;57617;51.988;5.854;2022-10-20T11:09:13;35.78;;;17.52;;
70228;SDS011;57617;51.988;5.854;2022-10-20T11:12:17;32.13;;;16.50;;
70228;SDS011;57617;51.988;5.854;2022-10-20T11:20:03;24.52;;;14.65;;
70228;SDS011;57617;51.988;5.854;2022-10-20T11:25:25;28.10;;;15.68;;
70228;SDS011;57617;51.988;5.854;2022-10-20T11:27:57;28.77;;;14.60;;
70228;SDS011;57617;51.988;5.854;2022-10-20T11:30:23;27.42;;;15.18;;
70228;SDS011;57617;51.988;5.854;2022-10-20T11:37:47;38.83;;;19.05;;
70228;SDS011;57617;51.988;5.854;2022-10-20T11:40:15;30.17;;;16.55;;
70228;SDS011;57617;51.988;5.854;2022-10-20T11:50:46;33.28;;;16.83;;
70228;SDS011;57617;51.988;5.854;2022-10-20T11:53:20;37.08;;;16.80;;
70228;SDS011;57617;51.988;5.854;2022-10-20T12:07:24;32.42;;;16.95;;
70228;SDS011;57617;51.988;5.854;2022-10-20T12:15:47;43.95;;;19.23;;
70228;SDS011;57617;51.988;5.854;2022-10-20T12:18:23;41.47;;;20.08;;
70228;SDS011;57617;51.988;5.854;2022-10-20T12:20:52;45.13;;;20.02;;
70228;SDS011;57617;51.988;5.854;2022-10-20T12:28:54;43.38;;;18.65;;
70228;SDS011;57617;51.988;5.854;2022-10-20T12:31:20;38.55;;;18.30;;
70228;SDS011;57617;51.988;5.854;2022-10-20T12:38:52;39.83;;;18.75;;
70228;SDS011;57617;51.988;5.854;2022-10-20T12:41:32;43.30;;;18.33;;
70228;SDS011;57617;51.988;5.854;2022-10-20T12:44:03;42.65;;;19.55;;
70228;SDS011;57617;51.988;5.854;2022-10-20T12:46:30;45.38;;;19.65;;
70228;SDS011;57617;51.988;5.854;2022-10-20T12:49:02;42.90;;;19.60;;
70228;SDS011;57617;51.988;5.854;2022-10-20T12:54:22;52.65;;;21.02;;
70228;SDS011;57617;51.988;5.854;2022-10-20T12:56:48;47.83;;;19.92;;
70228;SDS011;57617;51.988;5.854;2022-10-20T13:15:26;49.17;;;21.95;;
70228;SDS011;57617;51.988;5.854;2022-10-20T13:17:57;52.70;;;21.70;;
70228;SDS011;57617;51.988;5.854;2022-10-20T13:20:48;59.67;;;26.48;;
70228;SDS011;57617;51.988;5.854;2022-10-20T13:23:36;51.60;;;22.55;;
70228;SDS011;57617;51.988;5.854;2022-10-20T13:26:26;64.07;;;25.55;;
70228;SDS011;57617;51.988;5.854;2022-10-20T13:29:01;59.55;;;23.92;;
70228;SDS011;57617;51.988;5.854;2022-10-20T13:31:42;54.60;;;22.15;;
70228;SDS011;57617;51.988;5.854;2022-10-20T13:34:19;63.13;;;25.55;;
70228;SDS011;57617;51.988;5.854;2022-10-20T13:41:46;60.28;;;26.75;;
70228;SDS011;57617;51.988;5.854;2022-10-20T13:44:22;61.40;;;25.55;;
70228;SDS011;57617;51.988;5.854;2022-10-20T13:49:58;67.07;;;33.22;;
70228;SDS011;57617;51.988;5.854;2022-10-20T13:52:29;71.00;;;33.30;;
70228;SDS011;57617;51.988;5.854;2022-10-20T13:54:58;63.67;;;25.38;;
70228;SDS011;57617;51.988;5.854;2022-10-20T13:59:56;75.07;;;31.33;;
70228;SDS011;57617;51.988;5.854;2022-10-20T14:02:27;80.18;;;34.13;;
70228;SDS011;57617;51.988;5.854;2022-10-20T14:05:04;78.90;;;33.28;;
70228;SDS011;57617;51.988;5.854;2022-10-20T14:07:36;68.75;;;28.67;;
70228;SDS011;57617;51.988;5.854;2022-10-20T14:10:03;66.07;;;27.55;;
70228;SDS011;57617;51.988;5.854;2022-10-20T14:12:29;69.03;;;27.17;;
70228;SDS011;57617;51.988;5.854;2022-10-20T14:14:56;68.72;;;27.65;;
70228;SDS011;57617;51.988;5.854;2022-10-20T14:17:22;63.65;;;25.95;;
70228;SDS011;57617;51.988;5.854;2022-10-20T14:19:48;68.35;;;26.17;;
70228;SDS011;57617;51.988;5.854;2022-10-20T14:24:43;65.03;;;26.95;;
70228;SDS011;57617;51.988;5.854;2022-10-20T14:27:16;68.45;;;28.05;;
70228;SDS011;57617;51.988;5.854;2022-10-20T14:29:44;71.95;;;28.80;;
70228;SDS011;57617;51.988;5.854;2022-10-20T14:32:15;63.22;;;27.73;;
70228;SDS011;57617;51.988;5.854;2022-10-20T14:37:55;68.05;;;27.10;;
70228;SDS011;57617;51.988;5.854;2022-10-20T14:40:25;63.95;;;26.95;;
70228;SDS011;57617;51.988;5.854;2022-10-20T14:42:55;67.70;;;27.35;;
70228;SDS011;57617;51.988;5.854;2022-10-20T14:45:23;75.95;;;28.58;;
70228;SDS011;57617;51.988;5.854;2022-10-20T14:47:50;67.53;;;28.67;;
70228;SDS011;57617;51.988;5.854;2022-10-20T14:50:24;65.00;;;27.70;;
70228;SDS011;57617;51.988;5.854;2022-10-20T14:52:50;64.72;;;27.33;;
70228;SDS011;57617;51.988;5.854;2022-10-20T14:55:32;64.85;;;25.67;;
70228;SDS011;57617;51.988;5.854;2022-10-20T14:57:59;66.97;;;27.23;;
70228;SDS011;57617;51.988;5.854;2022-10-20T15:02:52;62.67;;;27.05;;
70228;SDS011;57617;51.988;5.854;2022-10-20T15:07:55;61.47;;;26.20;;
70228;SDS011;57617;51.988;5.854;2022-10-20T15:10:22;58.50;;;26.02;;
70228;SDS011;57617;51.988;5.854;2022-10-20T15:12:49;67.68;;;24.90;;
70228;SDS011;57617;51.988;5.854;2022-10-20T15:15:24;56.30;;;24.98;;
70228;SDS011;57617;51.988;5.854;2022-10-20T15:18:03;62.17;;;24.83;;
70228;SDS011;57617;51.988;5.854;2022-10-20T15:20:39;64.28;;;26.00;;
70228;SDS011;57617;51.988;5.854;2022-10-20T15:23:13;61.55;;;24.90;;
70228;SDS011;57617;51.988;5.854;2022-10-20T15:25:58;64.88;;;25.33;;
70228;SDS011;57617;51.988;5.854;2022-10-20T15:31:00;57.45;;;26.20;;
70228;SDS011;57617;51.988;5.854;2022-10-20T15:33:28;59.30;;;25.45;;
70228;SDS011;57617;51.988;5.854;2022-10-20T15:35:53;56.05;;;23.23;;
70228;SDS011;57617;51.988;5.854;2022-10-20T15:38:19;58.13;;;24.65;;
70228;SDS011;57617;51.988;5.854;2022-10-20T15:40:44;54.95;;;24.55;;
70228;SDS011;57617;51.988;5.854;2022-10-20T15:43:11;60.72;;;25.48;;
70228;SDS011;57617;51.988;5.854;2022-10-20T15:45:38;60.08;;;25.25;;
70228;SDS011;57617;51.988;5.854;2022-10-20T15:48:08;68.32;;;26.27;;
70228;SDS011;57617;51.988;5.854;2022-10-20T15:50:33;54.58;;;24.52;;
70228;SDS011;57617;51.988;5.854;2022-10-20T15:52:59;65.28;;;25.08;;
70228;SDS011;57617;51.988;5.854;2022-10-20T15:55:27;59.92;;;24.20;;
70228;SDS011;57617;51.988;5.854;2022-10-20T15:57:54;58.03;;;24.48;;
70228;SDS011;57617;51.988;5.854;2022-10-20T16:00:21;65.03;;;25.98;;
70228;SDS011;57617;51.988;5.854;2022-10-20T16:02:47;58.75;;;25.85;;
70228;SDS011;57617;51.988;5.854;2022-10-20T16:05:14;61.38;;;26.83;;
70228;SDS011;57617;51.988;5.854;2022-10-20T16:07:40;65.50;;;26.67;;
70228;SDS011;57617;51.988;5.854;2022-10-20T16:10:06;64.32;;;26.77;;
70228;SDS011;57617;51.988;5.854;2022-10-20T16:12:33;70.18;;;27.23;;
70228;SDS011;57617;51.988;5.854;2022-10-20T16:14:59;67.10;;;27.88;;
70228;SDS011;57617;51.988;5.854;2022-10-20T16:17:24;65.72;;;27.65;;
70228;SDS011;57617;51.988;5.854;2022-10-20T16:19:50;65.57;;;26.73;;
70228;SDS011;57617;51.988;5.854;2022-10-20T16:22:15;66.45;;;26.83;;
70228;SDS011;57617;51.988;5.854;2022-10-20T16:24:40;61.95;;;26.75;;
70228;SDS011;57617;51.988;5.854;2022-10-20T16:27:05;68.90;;;27.70;;
70228;SDS011;57617;51.988;5.854;2022-10-20T16:29:31;71.05;;;30.95;;
70228;SDS011;57617;51.988;5.854;2022-10-20T16:31:57;73.05;;;29.23;;
70228;SDS011;57617;51.988;5.854;2022-10-20T16:34:23;77.97;;;31.50;;
70228;SDS011;57617;51.988;5.854;2022-10-20T16:36:49;82.85;;;36.40;;
70228;SDS011;57617;51.988;5.854;2022-10-20T16:39:15;69.43;;;30.48;;
70228;SDS011;57617;51.988;5.854;2022-10-20T16:41:41;82.50;;;34.03;;
70228;SDS011;57617;51.988;5.854;2022-10-20T16:44:07;71.13;;;29.42;;
70228;SDS011;57617;51.988;5.854;2022-10-20T16:46:32;66.47;;;29.17;;
70228;SDS011;57617;51.988;5.854;2022-10-20T16:48:58;59.83;;;27.90;;
70228;SDS011;57617;51.988;5.854;2022-10-20T16:51:23;62.42;;;27.75;;
70228;SDS011;57617;51.988;5.854;2022-10-20T16:53:48;69.25;;;28.45;;
70228;SDS011;57617;51.988;5.854;2022-10-20T16:56:13;74.93;;;29.95;;
70228;SDS011;57617;51.988;5.854;2022-10-20T16:58:39;86.90;;;34.08;;
70228;SDS011;57617;51.988;5.854;2022-10-20T17:01:05;79.82;;;32.80;;
70228;SDS011;57617;51.988;5.854;2022-10-20T17:03:33;61.75;;;27.35;;
70228;SDS011;57617;51.988;5.854;2022-10-20T17:06:00;65.85;;;27.75;;
70228;SDS011;57617;51.988;5.854;2022-10-20T17:08:28;60.60;;;26.65;;